Time;durP1;ratioP1;P1;durP2;ratioP2;P2;SDS_P1;SDS_P2;PMS_P1;PMS_P2;Temp;Humidity;BMP_temperature;BMP_pressure;BME280_temperature;BME280_humidity;BME280_pressure;Samples;Min_cycle;Max_cycle;Signal;HPM_P1;HPM_P2
2021/09/08 00:00:05;;;;;;;9.10;6.35;;;;;24.40;101892.00;;;;5048475;28;20688;-77
2021/09/08 00:02:32;;;;;;;8.25;5.63;;;;;24.40;101897.00;;;;5051779;28;20190;-78
2021/09/08 00:04:59;;;;;;;6.88;5.90;;;;;24.40;101889.00;;;;5048098;28;20318;-77
2021/09/08 00:07:28;;;;;;;7.35;5.88;;;;;24.40;101885.00;;;;5047459;28;20565;-77
2021/09/08 00:09:55;;;;;;;8.77;6.05;;;;;24.40;101887.00;;;;5055097;28;20248;-77
2021/09/08 00:12:22;;;;;;;10.75;6.28;;;;;24.40;101892.00;;;;5057334;28;20222;-77
2021/09/08 00:14:50;;;;;;;7.45;5.35;;;;;24.40;101880.00;;;;5065090;28;20191;-77
2021/09/08 00:17:17;;;;;;;8.82;5.50;;;;;24.40;101877.00;;;;5054165;28;20200;-77
2021/09/08 00:19:44;;;;;;;7.53;6.07;;;;;24.40;101882.00;;;;5047588;28;20200;-77
2021/09/08 00:22:11;;;;;;;7.38;6.00;;;;;24.50;101879.00;;;;5048162;28;20589;-77
2021/09/08 00:24:40;;;;;;;8.07;5.50;;;;;24.40;101878.00;;;;5051249;28;20219;-77
2021/09/08 00:27:07;;;;;;;6.78;5.53;;;;;24.40;101877.00;;;;5050106;28;20203;-77
2021/09/08 00:29:35;;;;;;;6.30;4.75;;;;;24.40;101877.00;;;;5062986;28;20203;-77
2021/09/08 00:32:04;;;;;;;6.95;5.25;;;;;24.40;101862.00;;;;5057283;28;20224;-77
2021/09/08 00:34:31;;;;;;;7.65;6.15;;;;;24.40;101862.00;;;;5047470;28;20214;-77
2021/09/08 00:36:58;;;;;;;8.02;5.78;;;;;24.40;101855.00;;;;5047752;28;20698;-77
2021/09/08 00:39:26;;;;;;;7.25;5.10;;;;;24.40;101850.00;;;;5047482;28;20203;-77
2021/09/08 00:41:54;;;;;;;6.15;4.95;;;;;24.40;101846.00;;;;5048848;28;20203;-78
2021/09/08 00:44:25;;;;;;;7.32;5.57;;;;;24.40;101847.00;;;;5056113;28;20657;-77
2021/09/08 00:46:52;;;;;;;10.00;5.53;;;;;24.40;101846.00;;;;5061590;28;20195;-77
2021/09/08 00:49:19;;;;;;;5.95;4.88;;;;;24.40;101842.00;;;;5055771;28;20196;-77
2021/09/08 00:51:47;;;;;;;6.72;5.28;;;;;24.40;101851.00;;;;5051692;28;20227;-77
2021/09/08 00:54:16;;;;;;;8.23;5.03;;;;;24.40;101851.00;;;;5059661;28;20200;-77
2021/09/08 00:56:45;;;;;;;7.85;5.28;;;;;24.40;101849.00;;;;5047518;28;20192;-77
2021/09/08 00:59:14;;;;;;;7.32;5.43;;;;;24.40;101843.00;;;;5054826;28;20199;-77
2021/09/08 01:01:41;;;;;;;6.20;5.15;;;;;24.40;101857.00;;;;5049844;28;20204;-77
2021/09/08 01:04:08;;;;;;;8.75;5.32;;;;;24.30;101861.00;;;;5051214;28;20202;-77
2021/09/08 01:06:36;;;;;;;8.20;5.85;;;;;24.30;101852.00;;;;5050371;28;20206;-77
2021/09/08 01:09:05;;;;;;;9.55;6.00;;;;;24.30;101849.00;;;;5050834;28;20696;-77
2021/09/08 01:11:32;;;;;;;6.80;5.32;;;;;24.30;101854.00;;;;5051063;28;20223;-77
2021/09/08 01:13:59;;;;;;;7.65;5.75;;;;;24.20;101848.00;;;;5050610;28;20204;-77
2021/09/08 01:16:28;;;;;;;6.63;5.20;;;;;24.20;101846.00;;;;5050068;28;20658;-77
2021/09/08 01:18:55;;;;;;;11.18;6.03;;;;;24.20;101833.00;;;;5051152;28;20207;-77
2021/09/08 01:21:23;;;;;;;8.88;5.20;;;;;24.10;101832.00;;;;5051036;28;20207;-77
2021/09/08 01:23:51;;;;;;;7.40;5.78;;;;;24.10;101832.00;;;;5050275;28;20192;-77
2021/09/08 01:26:18;;;;;;;9.43;5.57;;;;;24.10;101831.00;;;;5050992;28;20199;-77
2021/09/08 01:28:46;;;;;;;8.20;5.68;;;;;24.10;101830.00;;;;5061620;28;20200;-77
2021/09/08 01:31:13;;;;;;;8.60;5.78;;;;;24.00;101823.00;;;;5052758;28;20203;-77
2021/09/08 01:33:40;;;;;;;7.65;6.05;;;;;24.00;101823.00;;;;5051569;28;20199;-78
2021/09/08 01:36:07;;;;;;;6.75;5.47;;;;;24.00;101824.00;;;;5049837;28;20208;-78
2021/09/08 01:38:34;;;;;;;8.43;5.97;;;;;24.00;101819.00;;;;5067160;28;20959;-77
2021/09/08 01:41:03;;;;;;;8.35;6.15;;;;;23.90;101820.00;;;;5071037;28;20207;-77
2021/09/08 01:43:31;;;;;;;8.32;6.07;;;;;23.90;101818.00;;;;5060140;28;20667;-77
2021/09/08 01:45:58;;;;;;;7.22;5.55;;;;;23.90;101816.00;;;;5065315;28;20188;-77
2021/09/08 01:48:25;;;;;;;9.98;5.78;;;;;23.90;101809.00;;;;5055291;28;20204;-77
2021/09/08 01:50:53;;;;;;;8.70;5.47;;;;;23.90;101813.00;;;;5052693;28;20196;-77
2021/09/08 01:53:20;;;;;;;8.85;6.18;;;;;23.90;101820.00;;;;5051215;28;20215;-77
2021/09/08 01:55:47;;;;;;;7.45;5.97;;;;;23.90;101813.00;;;;5050369;28;20192;-77
2021/09/08 01:58:16;;;;;;;6.65;5.32;;;;;23.80;101816.00;;;;5050540;28;20187;-77
2021/09/08 02:00:44;;;;;;;7.95;5.78;;;;;23.80;101815.00;;;;5050403;28;20204;-77
2021/09/08 02:03:11;;;;;;;8.25;6.03;;;;;23.80;101817.00;;;;5050459;28;20693;-77
2021/09/08 02:05:38;;;;;;;6.13;4.93;;;;;23.80;101822.00;;;;5050384;28;20204;-77
2021/09/08 02:08:05;;;;;;;7.38;4.95;;;;;23.70;101819.00;;;;5049504;28;20673;-77
2021/09/08 02:10:33;;;;;;;7.53;5.47;;;;;23.70;101817.00;;;;5052460;28;20820;-77
2021/09/08 02:13:00;;;;;;;7.65;5.32;;;;;23.70;101817.00;;;;5050668;28;20223;-77
2021/09/08 02:15:29;;;;;;;7.22;5.30;;;;;23.60;101808.00;;;;5050432;28;20208;-77
2021/09/08 02:17:56;;;;;;;7.70;5.20;;;;;23.60;101815.00;;;;5053648;28;20203;-77
2021/09/08 02:20:23;;;;;;;7.13;5.10;;;;;23.50;101811.00;;;;5049818;28;20192;-77
2021/09/08 02:22:51;;;;;;;6.85;5.28;;;;;23.50;101808.00;;;;5049777;28;20188;-77
2021/09/08 02:25:18;;;;;;;8.13;6.00;;;;;23.50;101803.00;;;;5050475;28;20211;-77
2021/09/08 02:27:45;;;;;;;7.75;6.20;;;;;23.40;101800.00;;;;5050114;28;20192;-77
2021/09/08 02:30:14;;;;;;;6.72;5.65;;;;;23.40;101804.00;;;;5050196;28;20703;-77
2021/09/08 02:32:43;;;;;;;7.57;5.35;;;;;23.40;101795.00;;;;5064250;28;20774;-77
2021/09/08 02:35:11;;;;;;;8.45;5.45;;;;;23.30;101796.00;;;;5051459;28;20200;-77
2021/09/08 02:37:38;;;;;;;6.60;5.35;;;;;23.30;101799.00;;;;5049963;28;20222;-77
2021/09/08 02:40:07;;;;;;;8.52;6.05;;;;;23.20;101796.00;;;;5057989;28;20257;-77
2021/09/08 02:42:34;;;;;;;6.35;4.97;;;;;23.20;101794.00;;;;5048926;28;20711;-77
2021/09/08 02:45:01;;;;;;;6.65;5.43;;;;;23.20;101794.00;;;;5053949;28;20200;-77
2021/09/08 02:47:28;;;;;;;6.85;5.60;;;;;23.10;101796.00;;;;5062038;28;20187;-77
2021/09/08 02:49:57;;;;;;;8.25;5.22;;;;;23.10;101790.00;;;;5065468;28;20673;-77
2021/09/08 02:52:24;;;;;;;8.30;5.75;;;;;23.10;101787.00;;;;5049135;28;20224;-77
2021/09/08 02:54:51;;;;;;;7.00;5.10;;;;;23.10;101778.00;;;;5048586;28;20221;-77
2021/09/08 02:57:19;;;;;;;8.68;5.97;;;;;23.00;101779.00;;;;5049234;28;20232;-77
2021/09/08 02:59:46;;;;;;;7.60;5.82;;;;;23.00;101778.00;;;;5048864;28;20225;-77
2021/09/08 03:02:13;;;;;;;8.02;5.25;;;;;23.00;101784.00;;;;5047435;28;20196;-77
2021/09/08 03:04:40;;;;;;;8.02;5.70;;;;;23.00;101778.00;;;;5048800;28;20252;-77
2021/09/08 03:07:09;;;;;;;8.23;5.80;;;;;22.90;101777.00;;;;5056946;28;20198;-77
2021/09/08 03:09:36;;;;;;;7.32;5.63;;;;;22.90;101777.00;;;;5049672;28;20653;-77
2021/09/08 03:12:05;;;;;;;9.40;5.68;;;;;22.90;101781.00;;;;5049001;28;20897;-77
2021/09/08 03:14:32;;;;;;;7.30;5.30;;;;;22.90;101776.00;;;;5048923;28;20208;-77
2021/09/08 03:16:59;;;;;;;6.82;5.22;;;;;22.80;101767.00;;;;5051437;28;20191;-77
2021/09/08 03:19:27;;;;;;;7.75;5.65;;;;;22.80;101778.00;;;;5055383;28;20997;-77
2021/09/08 03:21:54;;;;;;;8.13;6.55;;;;;22.80;101787.00;;;;5050008;28;20205;-77
2021/09/08 03:24:22;;;;;;;7.30;5.30;;;;;22.80;101782.00;;;;5051850;28;20227;-77
2021/09/08 03:26:50;;;;;;;8.30;5.70;;;;;22.80;101784.00;;;;5048849;28;20191;-77
2021/09/08 03:29:17;;;;;;;6.85;5.80;;;;;22.70;101786.00;;;;5065139;28;20211;-77
2021/09/08 03:31:44;;;;;;;8.45;6.50;;;;;22.70;101781.00;;;;5067213;28;20209;-77
2021/09/08 03:34:11;;;;;;;7.18;5.30;;;;;22.70;101781.00;;;;5063256;28;20203;-77
2021/09/08 03:36:38;;;;;;;8.63;5.82;;;;;22.70;101770.00;;;;5056110;28;20199;-77
2021/09/08 03:39:06;;;;;;;8.57;5.47;;;;;22.60;101773.00;;;;5047899;28;20265;-77
2021/09/08 03:41:35;;;;;;;7.47;6.30;;;;;22.60;101776.00;;;;5049745;28;20199;-77
2021/09/08 03:44:03;;;;;;;8.98;5.82;;;;;22.60;101775.00;;;;5052925;28;20207;-77
2021/09/08 03:46:30;;;;;;;7.78;5.88;;;;;22.60;101771.00;;;;5059038;28;20200;-77
2021/09/08 03:48:59;;;;;;;9.20;6.10;;;;;22.50;101765.00;;;;5061809;28;20572;-77
2021/09/08 03:51:26;;;;;;;8.20;6.40;;;;;22.50;101766.00;;;;5048100;28;20203;-77
2021/09/08 03:53:58;;;;;;;8.25;6.75;;;;;22.50;101762.00;;;;5048914;28;20226;-77
2021/09/08 03:56:25;;;;;;;8.23;6.53;;;;;22.50;101747.00;;;;5052020;28;20187;-77
2021/09/08 03:58:55;;;;;;;9.38;6.80;;;;;22.40;101746.00;;;;5048838;28;20199;-77
2021/09/08 04:01:22;;;;;;;9.63;6.22;;;;;22.40;101740.00;;;;5053665;28;20209;-77
2021/09/08 04:03:49;;;;;;;8.55;6.20;;;;;22.40;101746.00;;;;5064692;28;20204;-77
2021/09/08 04:06:17;;;;;;;8.85;6.28;;;;;22.40;101743.00;;;;5048272;28;20208;-77
2021/09/08 04:08:45;;;;;;;8.85;6.85;;;;;22.30;101731.00;;;;5047956;28;20195;-77
2021/09/08 04:11:12;;;;;;;7.65;5.88;;;;;22.30;101742.00;;;;5046731;28;20199;-77
2021/09/08 04:13:39;;;;;;;9.68;6.15;;;;;22.30;101738.00;;;;5048019;28;20277;-77
2021/09/08 04:16:08;;;;;;;10.18;7.03;;;;;22.20;101742.00;;;;5047800;28;20199;-77
2021/09/08 04:18:35;;;;;;;7.28;5.43;;;;;22.20;101734.00;;;;5046717;28;20199;-77
2021/09/08 04:21:02;;;;;;;9.13;5.97;;;;;22.20;101740.00;;;;5047669;28;20199;-77
2021/09/08 04:23:30;;;;;;;8.77;6.47;;;;;22.20;101736.00;;;;5047291;28;20208;-77
2021/09/08 04:25:57;;;;;;;9.20;6.28;;;;;22.20;101734.00;;;;5047300;28;20235;-77
2021/09/08 04:28:24;;;;;;;9.32;6.55;;;;;22.20;101734.00;;;;5051703;28;20195;-77
2021/09/08 04:30:51;;;;;;;9.18;6.07;;;;;22.10;101741.00;;;;5060654;28;20260;-77
2021/09/08 04:33:20;;;;;;;10.10;6.25;;;;;22.10;101736.00;;;;5050810;28;20231;-77
2021/09/08 04:35:47;;;;;;;8.48;6.03;;;;;22.10;101738.00;;;;5051634;28;20211;-77
2021/09/08 04:38:15;;;;;;;10.80;6.57;;;;;22.10;101732.00;;;;5051788;28;20224;-77
2021/09/08 04:40:42;;;;;;;10.25;5.82;;;;;22.10;101730.00;;;;5051288;28;20716;-77
2021/09/08 04:43:09;;;;;;;8.38;6.00;;;;;22.10;101732.00;;;;5051741;28;20243;-77
2021/09/08 04:45:36;;;;;;;8.18;5.35;;;;;22.00;101733.00;;;;5050950;28;20200;-77
2021/09/08 04:48:04;;;;;;;9.63;6.82;;;;;22.00;101737.00;;;;5058240;28;20199;-77
2021/09/08 04:50:32;;;;;;;9.02;6.38;;;;;22.00;101736.00;;;;5066339;28;20195;-77
2021/09/08 04:52:59;;;;;;;8.13;6.15;;;;;22.00;101731.00;;;;5069313;28;20272;-77
2021/09/08 04:55:27;;;;;;;11.48;6.65;;;;;22.00;101725.00;;;;5055857;28;20196;-76
2021/09/08 04:57:54;;;;;;;9.57;6.35;;;;;22.00;101727.00;;;;5051664;28;20204;-77
2021/09/08 05:00:21;;;;;;;9.75;6.28;;;;;21.90;101730.00;;;;5053781;28;20207;-77
2021/09/08 05:02:49;;;;;;;10.35;7.28;;;;;21.90;101724.00;;;;5050976;28;20211;-77
2021/09/08 05:05:16;;;;;;;10.50;6.38;;;;;21.90;101727.00;;;;5053341;28;20210;-77
2021/09/08 05:07:44;;;;;;;8.82;6.63;;;;;21.90;101723.00;;;;5067680;28;20191;-77
2021/09/08 05:10:12;;;;;;;10.23;6.20;;;;;21.90;101715.00;;;;5057932;28;20194;-77
2021/09/08 05:12:39;;;;;;;10.05;6.93;;;;;21.80;101708.00;;;;5050021;28;20223;-77
2021/09/08 05:15:07;;;;;;;9.23;6.68;;;;;21.80;101719.00;;;;5053640;28;20211;-77
2021/09/08 05:17:35;;;;;;;9.73;6.75;;;;;21.80;101717.00;;;;5052479;28;20198;-77
2021/09/08 05:20:03;;;;;;;9.93;7.13;;;;;21.80;101716.00;;;;5052869;28;20203;-77
2021/09/08 05:22:30;;;;;;;9.57;6.10;;;;;21.80;101716.00;;;;5051024;28;20562;-77
2021/09/08 05:24:59;;;;;;;7.80;6.18;;;;;21.80;101714.00;;;;5053912;28;20218;-76
2021/09/08 05:27:26;;;;;;;8.90;7.03;;;;;21.80;101714.00;;;;5050701;28;20195;-76
2021/09/08 05:29:53;;;;;;;8.65;6.80;;;;;21.80;101716.00;;;;5047085;28;20200;-77
2021/09/08 05:32:20;;;;;;;8.57;6.45;;;;;21.80;101712.00;;;;5056066;28;20223;-76
2021/09/08 05:34:48;;;;;;;8.55;6.75;;;;;21.80;101713.00;;;;5057950;28;20206;-77
2021/09/08 05:37:15;;;;;;;9.52;6.20;;;;;21.80;101717.00;;;;5065297;28;20211;-77
2021/09/08 05:39:42;;;;;;;8.90;6.63;;;;;21.80;101709.00;;;;5055717;28;20195;-77
2021/09/08 05:42:11;;;;;;;8.45;6.65;;;;;21.80;101710.00;;;;5059208;28;20207;-77
2021/09/08 05:44:38;;;;;;;7.63;6.07;;;;;21.80;101709.00;;;;5056037;28;20207;-76
2021/09/08 05:47:05;;;;;;;9.20;6.85;;;;;21.90;101702.00;;;;5052436;28;20207;-77
2021/09/08 05:49:32;;;;;;;9.05;6.65;;;;;21.90;101707.00;;;;5054790;28;20617;-77
2021/09/08 05:52:00;;;;;;;9.40;6.70;;;;;21.90;101699.00;;;;5060125;28;20203;-77
2021/09/08 05:54:27;;;;;;;9.52;7.20;;;;;21.90;101703.00;;;;5057842;28;20227;-78
2021/09/08 05:56:54;;;;;;;9.52;6.35;;;;;22.00;101702.00;;;;5051536;28;20599;-77
2021/09/08 05:59:23;;;;;;;7.75;6.15;;;;;22.00;101707.00;;;;5054132;28;20268;-77
2021/09/08 06:01:50;;;;;;;9.05;6.55;;;;;22.00;101707.00;;;;5055941;28;20204;-77
2021/09/08 06:04:17;;;;;;;9.52;6.68;;;;;22.10;101700.00;;;;5050264;28;20207;-77
2021/09/08 06:06:45;;;;;;;10.27;6.38;;;;;22.10;101701.00;;;;5050665;28;20215;-77
2021/09/08 06:09:12;;;;;;;8.93;6.20;;;;;22.20;101705.00;;;;5051584;28;20653;-78
2021/09/08 06:11:39;;;;;;;8.50;6.53;;;;;22.20;101709.00;;;;5049552;28;22300;-78
2021/09/08 06:14:10;;;;;;;8.57;5.82;;;;;22.30;101704.00;;;;5049244;28;20227;-77
2021/09/08 06:16:39;;;;;;;11.18;6.70;;;;;22.40;101703.00;;;;5057234;28;20720;-77
2021/09/08 06:19:06;;;;;;;8.95;6.32;;;;;22.50;101707.00;;;;5048632;28;20202;-78
2021/09/08 06:21:33;;;;;;;9.57;7.20;;;;;22.50;101708.00;;;;5048362;28;20203;-77
2021/09/08 06:24:01;;;;;;;8.57;6.10;;;;;22.60;101707.00;;;;5050635;28;20191;-77
2021/09/08 06:26:28;;;;;;;7.38;5.72;;;;;22.70;101708.00;;;;5053678;28;20195;-77
2021/09/08 06:28:55;;;;;;;9.15;6.45;;;;;22.80;101701.00;;;;5051085;28;20187;-77
2021/09/08 06:31:22;;;;;;;8.50;5.63;;;;;22.80;101710.00;;;;5056812;28;20202;-77
2021/09/08 06:33:51;;;;;;;9.85;6.40;;;;;22.90;101703.00;;;;5058962;28;20234;-78
2021/09/08 06:36:18;;;;;;;9.02;7.00;;;;;23.00;101701.00;;;;5058753;28;20262;-77
2021/09/08 06:38:46;;;;;;;9.85;6.72;;;;;23.10;101714.00;;;;5048767;28;20227;-77
2021/09/08 06:41:13;;;;;;;8.63;6.70;;;;;23.20;101707.00;;;;5062596;28;20196;-77
2021/09/08 06:43:40;;;;;;;8.93;6.63;;;;;23.30;101703.00;;;;5051422;28;20196;-78
2021/09/08 06:46:07;;;;;;;10.60;6.68;;;;;23.30;101702.00;;;;5059690;28;20195;-77
2021/09/08 06:48:34;;;;;;;9.45;6.57;;;;;23.40;101697.00;;;;5054799;28;20208;-77
2021/09/08 06:51:03;;;;;;;9.80;7.38;;;;;23.50;101695.00;;;;5055324;28;20657;-78
2021/09/08 06:53:30;;;;;;;8.77;6.60;;;;;23.60;101695.00;;;;5051199;28;20234;-77
2021/09/08 06:55:58;;;;;;;8.27;6.63;;;;;23.70;101696.00;;;;5058824;28;20207;-78
2021/09/08 06:58:25;;;;;;;9.27;7.13;;;;;23.70;101687.00;;;;5057431;28;20191;-78
2021/09/08 07:00:53;;;;;;;12.63;7.40;;;;;23.80;101683.00;;;;5053492;28;21238;-78
2021/09/08 07:03:20;;;;;;;12.70;7.15;;;;;23.90;101683.00;;;;5063062;28;20664;-78
2021/09/08 07:05:48;;;;;;;10.27;6.82;;;;;24.00;101671.00;;;;5050317;28;20207;-78
2021/09/08 07:08:16;;;;;;;8.93;7.50;;;;;24.00;101672.00;;;;5048473;28;20199;-78
2021/09/08 07:10:44;;;;;;;9.02;6.07;;;;;24.10;101670.00;;;;5048796;28;20221;-78
2021/09/08 07:13:11;;;;;;;10.38;7.68;;;;;24.20;101679.00;;;;5047559;28;20225;-78
2021/09/08 07:15:38;;;;;;;12.85;7.55;;;;;24.30;101675.00;;;;5048124;28;20210;-78
2021/09/08 07:18:06;;;;;;;12.00;7.43;;;;;24.40;101667.00;;;;5047308;28;20200;-78
2021/09/08 07:20:33;;;;;;;11.07;8.23;;;;;24.40;101674.00;;;;5048593;28;20257;-78
2021/09/08 07:23:00;;;;;;;10.77;7.30;;;;;24.50;101672.00;;;;5049172;28;20192;-79
2021/09/08 07:25:29;;;;;;;9.15;7.15;;;;;24.60;101665.00;;;;5048974;28;20693;-78
2021/09/08 07:27:56;;;;;;;8.75;6.88;;;;;24.70;101665.00;;;;5047014;28;20206;-79
2021/09/08 07:30:24;;;;;;;11.65;6.32;;;;;24.70;101669.00;;;;5053395;28;20187;-78
2021/09/08 07:32:51;;;;;;;9.80;6.13;;;;;24.80;101657.00;;;;5052361;28;20187;-79
2021/09/08 07:35:18;;;;;;;11.82;6.78;;;;;24.90;101662.00;;;;5056568;28;20223;-78
2021/09/08 07:37:45;;;;;;;8.13;6.05;;;;;25.00;101666.00;;;;5050601;28;20238;-78
2021/09/08 07:40:13;;;;;;;8.32;6.47;;;;;25.10;101667.00;;;;5052921;28;20208;-78
2021/09/08 07:42:42;;;;;;;8.38;6.35;;;;;25.20;101660.00;;;;5052623;28;20192;-78
2021/09/08 07:45:10;;;;;;;8.45;6.25;;;;;25.30;101654.00;;;;5052894;28;20211;-78
2021/09/08 07:47:37;;;;;;;9.02;6.30;;;;;25.40;101652.00;;;;5047745;28;20223;-78
2021/09/08 07:50:06;;;;;;;8.52;6.15;;;;;25.50;101657.00;;;;5055005;28;20207;-79
2021/09/08 07:52:33;;;;;;;7.90;6.25;;;;;25.60;101650.00;;;;5048441;28;20196;-78
2021/09/08 07:55:01;;;;;;;8.85;7.25;;;;;25.70;101651.00;;;;5047645;28;20238;-78
2021/09/08 07:57:28;;;;;;;9.02;7.07;;;;;25.80;101654.00;;;;5054368;28;20199;-79
2021/09/08 07:59:57;;;;;;;7.72;6.13;;;;;25.90;101652.00;;;;5068517;28;20199;-79
2021/09/08 08:02:24;;;;;;;8.85;6.28;;;;;26.00;101654.00;;;;5068537;28;20673;-79
2021/09/08 08:04:51;;;;;;;8.60;6.28;;;;;26.10;101651.00;;;;5068842;28;20210;-79
2021/09/08 08:07:18;;;;;;;8.00;6.18;;;;;26.20;101656.00;;;;5065869;28;20207;-79
2021/09/08 08:09:46;;;;;;;8.40;6.10;;;;;26.30;101657.00;;;;5060420;28;20670;-78
2021/09/08 08:12:13;;;;;;;7.63;5.60;;;;;26.40;101660.00;;;;5053994;28;20207;-78
2021/09/08 08:14:40;;;;;;;7.25;6.13;;;;;26.50;101664.00;;;;5051073;28;20229;-79
2021/09/08 08:17:09;;;;;;;8.40;5.78;;;;;26.60;101657.00;;;;5060933;28;20582;-80
2021/09/08 08:19:36;;;;;;;7.65;6.10;;;;;26.70;101664.00;;;;5070814;28;20207;-79
2021/09/08 08:22:04;;;;;;;6.95;5.38;;;;;26.80;101663.00;;;;5071533;28;20553;-81
2021/09/08 08:24:32;;;;;;;10.20;6.20;;;;;26.90;101665.00;;;;5069915;28;20767;-79
2021/09/08 08:27:00;;;;;;;6.90;5.57;;;;;27.00;101666.00;;;;5066089;28;20652;-80
2021/09/08 08:29:28;;;;;;;10.02;6.13;;;;;27.10;101667.00;;;;5060609;28;20651;-79
2021/09/08 08:31:55;;;;;;;10.18;6.05;;;;;27.20;101665.00;;;;5065850;28;20270;-80
2021/09/08 08:34:24;;;;;;;6.78;4.97;;;;;27.30;101660.00;;;;5051834;28;20226;-79
2021/09/08 08:36:52;;;;;;;10.80;8.10;;;;;27.40;101658.00;;;;5054405;28;21269;-79
2021/09/08 08:39:20;;;;;;;8.45;6.35;;;;;27.50;101663.00;;;;5052552;28;20211;-80
2021/09/08 08:41:47;;;;;;;8.10;5.57;;;;;27.60;101664.00;;;;5051665;28;20211;-79
2021/09/08 08:44:16;;;;;;;9.52;5.85;;;;;27.70;101667.00;;;;5054929;28;20202;-80
2021/09/08 08:46:43;;;;;;;9.63;6.18;;;;;27.80;101670.00;;;;5071055;28;20687;-79
2021/09/08 08:49:11;;;;;;;7.38;5.22;;;;;27.90;101666.00;;;;5071645;28;20202;-79
2021/09/08 08:51:39;;;;;;;5.90;4.95;;;;;28.00;101664.00;;;;5057222;28;20203;-80
2021/09/08 08:54:06;;;;;;;7.97;5.43;;;;;28.10;101661.00;;;;5063095;28;20815;-80
2021/09/08 08:56:33;;;;;;;7.78;5.45;;;;;28.20;101660.00;;;;5070945;28;20195;-80
2021/09/08 08:59:01;;;;;;;6.85;5.65;;;;;28.30;101657.00;;;;5067547;28;20206;-79
2021/09/08 09:01:31;;;;;;;9.65;5.57;;;;;28.50;101658.00;;;;5069565;28;20203;-80
2021/09/08 09:04:01;;;;;;;7.40;5.68;;;;;28.50;101667.00;;;;5051344;28;20702;-80
2021/09/08 09:06:29;;;;;;;7.90;5.32;;;;;28.60;101657.00;;;;5050838;28;20628;-81
2021/09/08 09:09:03;;;;;;;7.07;5.68;;;;;28.70;101664.00;;;;5050709;28;20200;-80
2021/09/08 09:11:30;;;;;;;10.20;6.25;;;;;28.80;101656.00;;;;5050915;28;20199;-80
2021/09/08 09:13:58;;;;;;;8.05;6.18;;;;;29.00;101660.00;;;;5051756;28;20227;-80
2021/09/08 09:16:27;;;;;;;6.88;5.28;;;;;29.10;101654.00;;;;5060447;28;20210;-80
2021/09/08 09:18:54;;;;;;;6.85;5.40;;;;;29.20;101655.00;;;;5069220;28;20256;-80
2021/09/08 09:21:23;;;;;;;7.78;6.03;;;;;29.30;101657.00;;;;5070274;28;20218;-80
2021/09/08 09:23:52;;;;;;;10.18;6.60;;;;;29.40;101657.00;;;;5064852;28;20684;-79
2021/09/08 09:26:26;;;;;;;8.98;5.65;;;;;29.40;101651.00;;;;5052088;28;20219;-78
2021/09/08 09:28:55;;;;;;;7.18;5.38;;;;;29.60;101648.00;;;;5060329;28;20216;-79
2021/09/08 09:31:24;;;;;;;10.32;5.88;;;;;29.70;101649.00;;;;5060791;28;20225;-79
2021/09/08 09:33:55;;;;;;;7.30;5.00;;;;;29.80;101649.00;;;;5052622;28;20203;-78
2021/09/08 09:36:24;;;;;;;9.55;6.18;;;;;29.90;101644.00;;;;5050766;28;20210;-79
2021/09/08 09:38:54;;;;;;;10.32;6.03;;;;;29.90;101639.00;;;;5047811;28;20238;-79
2021/09/08 09:41:32;;;;;;;6.68;5.93;;;;;30.00;101642.00;;;;5051353;28;20661;-79
2021/09/08 09:44:07;;;;;;;10.02;5.60;;;;;30.10;101643.00;;;;5051258;28;20195;-79
2021/09/08 09:46:35;;;;;;;10.48;6.97;;;;;30.30;101638.00;;;;5055013;28;20227;-79
2021/09/08 09:49:04;;;;;;;7.65;5.07;;;;;30.30;101631.00;;;;5048640;28;20238;-80
2021/09/08 09:51:31;;;;;;;8.75;5.07;;;;;30.40;101635.00;;;;5049270;28;20296;-80
2021/09/08 09:53:59;;;;;;;6.45;5.57;;;;;30.60;101626.00;;;;5050205;28;20207;-80
2021/09/08 09:56:26;;;;;;;6.80;5.60;;;;;30.70;101627.00;;;;5050416;28;20207;-80
2021/09/08 09:58:55;;;;;;;8.23;5.82;;;;;30.80;101625.00;;;;5050540;28;20686;-80
2021/09/08 10:01:22;;;;;;;5.85;5.13;;;;;30.90;101625.00;;;;5050095;28;20206;-80
2021/09/08 10:03:49;;;;;;;7.28;4.82;;;;;30.90;101617.00;;;;5050315;28;20191;-81
2021/09/08 10:06:18;;;;;;;8.73;5.25;;;;;31.00;101609.00;;;;5049125;28;20204;-80
2021/09/08 10:08:48;;;;;;;6.65;5.30;;;;;31.10;101602.00;;;;5048643;28;20196;-80
2021/09/08 10:11:20;;;;;;;5.28;4.63;;;;;31.30;101608.00;;;;5048886;28;20199;-79
2021/09/08 10:13:53;;;;;;;6.13;5.05;;;;;31.40;101609.00;;;;5047366;28;20200;-79
2021/09/08 10:16:23;;;;;;;6.95;4.72;;;;;31.50;101601.00;;;;5047606;28;20412;-79
2021/09/08 10:18:51;;;;;;;6.75;5.35;;;;;31.60;101592.00;;;;5048778;28;20294;-80
2021/09/08 10:21:20;;;;;;;5.40;4.88;;;;;31.70;101592.00;;;;5049290;28;20207;-81
2021/09/08 10:23:56;;;;;;;8.88;5.35;;;;;31.70;101585.00;;;;5048058;28;20199;-80
2021/09/08 10:26:28;;;;;;;7.85;5.43;;;;;31.80;101583.00;;;;5048089;28;20301;-80
2021/09/08 10:28:57;;;;;;;5.00;4.43;;;;;31.90;101577.00;;;;5057747;28;20205;-80
2021/09/08 10:31:26;;;;;;;5.57;4.80;;;;;32.00;101579.00;;;;5067399;28;20309;-81
2021/09/08 10:33:58;;;;;;;7.60;5.20;;;;;32.00;101583.00;;;;5051235;28;20202;-80
2021/09/08 10:36:26;;;;;;;6.50;4.50;;;;;32.10;101583.00;;;;5065648;28;20194;-80
2021/09/08 10:39:08;;;;;;;5.07;4.57;;;;;32.10;101575.00;;;;5056256;28;20219;-79
2021/09/08 10:41:41;;;;;;;5.85;4.38;;;;;32.30;101578.00;;;;5052893;28;20604;-80
2021/09/08 10:44:09;;;;;;;6.80;4.70;;;;;32.40;101581.00;;;;5052033;28;20692;-80
2021/09/08 10:46:54;;;;;;;8.48;5.30;;;;;32.40;101574.00;;;;5049722;28;20195;-80
2021/09/08 10:49:46;;;;;;;4.85;4.45;;;;;32.40;101569.00;;;;5047753;28;20203;-81
2021/09/08 10:52:15;;;;;;;7.30;4.47;;;;;32.50;101567.00;;;;5047661;28;20241;-81
2021/09/08 10:55:13;;;;;;;8.32;5.18;;;;;32.50;101568.00;;;;5047602;28;20227;-81
2021/09/08 10:57:56;;;;;;;5.85;4.72;;;;;32.50;101564.00;;;;5047399;28;20218;-80
2021/09/08 11:00:27;;;;;;;5.70;3.85;;;;;32.60;101556.00;;;;5047461;28;20203;-81
2021/09/08 11:02:56;;;;;;;5.32;4.45;;;;;32.60;101553.00;;;;5047317;28;20190;-81
2021/09/08 11:05:23;;;;;;;5.68;4.90;;;;;32.70;101553.00;;;;5046875;28;20885;-81
2021/09/08 11:07:51;;;;;;;5.13;4.38;;;;;32.70;101543.00;;;;5048897;28;20204;-81
2021/09/08 11:10:27;;;;;;;5.63;4.28;;;;;32.70;101547.00;;;;5049069;28;20289;-81
2021/09/08 11:12:57;;;;;;;6.07;4.78;;;;;32.80;101543.00;;;;5049166;28;20237;-81
2021/09/08 11:15:33;;;;;;;4.68;4.18;;;;;32.80;101539.00;;;;5062922;28;20234;-82
2021/09/08 11:18:02;;;;;;;12.40;4.68;;;;;32.90;101540.00;;;;5060222;28;20222;-81
2021/09/08 11:20:29;;;;;;;6.57;4.38;;;;;32.90;101536.00;;;;5048871;28;20210;-81
2021/09/08 11:23:02;;;;;;;5.40;4.32;;;;;32.90;101528.00;;;;5049170;28;20188;-81
2021/09/08 11:25:34;;;;;;;6.28;4.45;;;;;33.00;101532.00;;;;5048892;28;20277;-81
2021/09/08 11:28:02;;;;;;;5.13;4.05;;;;;33.10;101530.00;;;;5048169;28;20649;-78
2021/09/08 11:30:34;;;;;;;5.70;4.60;;;;;33.10;101531.00;;;;5049113;28;20207;-80
2021/09/08 11:33:05;;;;;;;5.57;4.22;;;;;33.10;101525.00;;;;5049404;28;20242;-80
2021/09/08 11:35:41;;;;;;;5.10;4.22;;;;;33.10;101526.00;;;;5048161;28;20227;-80
2021/09/08 11:38:14;;;;;;;5.30;3.97;;;;;33.10;101520.00;;;;5057170;28;21165;-80
2021/09/08 11:40:44;;;;;;;5.63;3.85;;;;;33.10;101523.00;;;;5057289;28;20199;-79
2021/09/08 11:43:11;;;;;;;5.63;4.38;;;;;33.20;101518.00;;;;5047866;28;20195;-78
2021/09/08 11:45:39;;;;;;;4.28;3.80;;;;;33.20;101508.00;;;;5046305;28;20577;-79
2021/09/08 11:48:08;;;;;;;5.63;3.85;;;;;33.20;101506.00;;;;5046807;28;20203;-79
2021/09/08 11:50:35;;;;;;;4.70;4.20;;;;;33.20;101508.00;;;;5047806;28;20199;-78
2021/09/08 11:53:04;;;;;;;5.70;4.45;;;;;33.20;101505.00;;;;5046927;28;20215;-78
2021/09/08 11:55:33;;;;;;;5.03;4.25;;;;;33.30;101500.00;;;;5047809;28;20224;-78
2021/09/08 11:58:20;;;;;;;5.93;4.57;;;;;33.20;101504.00;;;;5046825;28;20559;-79
2021/09/08 12:00:57;;;;;;;7.20;4.35;;;;;33.20;101497.00;;;;5050624;28;20197;-79
2021/09/08 12:03:26;;;;;;;5.95;4.43;;;;;33.30;101501.00;;;;5047856;28;20226;-78
2021/09/08 12:06:06;;;;;;;6.43;5.00;;;;;33.30;101504.00;;;;5050028;28;20653;-78
2021/09/08 12:08:34;;;;;;;5.28;4.05;;;;;33.40;101498.00;;;;5052359;28;20199;-79
2021/09/08 12:11:01;;;;;;;6.80;4.97;;;;;33.40;101499.00;;;;5059242;28;20221;-78